Главная страница
METAR-TAF:

METAR-TAF

Аэропорты :

Сунан

Пхеньян, Северная Корея

широта: 39-02N, долгота: 125-47E, высота над уровнем моря: 36 м

METAR: отсутствует

Время: 03:27 (18:57 UTC)

Прогноз

Эта сводка был подготовлена 8 часа и 37 минут назад, в 10:20 UTC
Прогноз действительный с 15-го 12 UTC до 16-го 12 UTC
Ветер 8 Узел от южный-юго-западный
Видимость: 3000 м
Отдельные облака на высоте 2000 фута
Рассеянная облачность на высоте 3000 фута
дымка
временами
С 15-го 18 UTC до 15-го 23 UTC
Видимость: 1000 м
Сплошная облачность на высоте 2700 фута
небольшой дождь, дымка

TAF: ZKPY 151020Z 1512/1612 21004MPS 3000 BR SCT020 BKN030 TX09/1606Z TN03/1522Z TEMPO 1518/1523 1000 -RA BR OVC027

Метеонаблюдения и прогнозы для более 4000 аэропортов (сводки METAR и TAF).

Имеющиеся станции представлены на карте желтыми и красными точками.

Чтобы увидеть название станции, наведите на нее мышь.

Затем щелкните, чтобы увидеть метеонаблюдения и метеопрогнозы.

Управление картой: чтобы увеличить масштаб, щелкните зеленые кнопки с черным крестиком; чтобы уменьшить масштаб, щелкните зеленую кнопку с тире; для просмотра соседних карт щелкайте зеленые стрелки.


METAR-TAF: